sensor_id;sensor_type;location;lat;lon;timestamp;P1;durP1;ratioP1;P2;durP2;ratioP2
33022;SDS011;19390;51.460;5.710;2023-02-15T00:01:30;54.45;;;29.25;;
33022;SDS011;19390;51.460;5.710;2023-02-15T00:03:56;53.50;;;29.92;;
33022;SDS011;19390;51.460;5.710;2023-02-15T00:06:22;52.60;;;28.85;;
33022;SDS011;19390;51.460;5.710;2023-02-15T00:08:47;58.22;;;30.48;;
33022;SDS011;19390;51.460;5.710;2023-02-15T00:11:14;53.88;;;27.67;;
33022;SDS011;19390;51.460;5.710;2023-02-15T00:13:41;52.42;;;28.75;;
33022;SDS011;19390;51.460;5.710;2023-02-15T00:16:11;51.72;;;29.02;;
33022;SDS011;19390;51.460;5.710;2023-02-15T00:18:39;53.92;;;29.02;;
33022;SDS011;19390;51.460;5.710;2023-02-15T00:21:06;47.70;;;27.65;;
33022;SDS011;19390;51.460;5.710;2023-02-15T00:23:33;50.25;;;28.25;;
33022;SDS011;19390;51.460;5.710;2023-02-15T00:26:03;52.03;;;28.38;;
33022;SDS011;19390;51.460;5.710;2023-02-15T00:31:08;55.28;;;27.10;;
33022;SDS011;19390;51.460;5.710;2023-02-15T00:33:35;49.63;;;27.25;;
33022;SDS011;19390;51.460;5.710;2023-02-15T00:36:02;56.00;;;30.50;;
33022;SDS011;19390;51.460;5.710;2023-02-15T00:38:30;56.33;;;29.10;;
33022;SDS011;19390;51.460;5.710;2023-02-15T00:40:56;55.70;;;28.35;;
33022;SDS011;19390;51.460;5.710;2023-02-15T00:43:23;50.90;;;28.02;;
33022;SDS011;19390;51.460;5.710;2023-02-15T00:45:50;56.78;;;29.40;;
33022;SDS011;19390;51.460;5.710;2023-02-15T00:48:16;52.30;;;28.73;;
33022;SDS011;19390;51.460;5.710;2023-02-15T00:50:44;53.60;;;28.52;;
33022;SDS011;19390;51.460;5.710;2023-02-15T00:53:11;53.53;;;28.20;;
33022;SDS011;19390;51.460;5.710;2023-02-15T00:55:37;51.03;;;29.75;;
33022;SDS011;19390;51.460;5.710;2023-02-15T00:58:04;51.40;;;28.33;;
33022;SDS011;19390;51.460;5.710;2023-02-15T01:00:31;56.05;;;29.27;;
33022;SDS011;19390;51.460;5.710;2023-02-15T01:02:56;56.95;;;30.15;;
33022;SDS011;19390;51.460;5.710;2023-02-15T01:05:22;53.65;;;29.80;;
33022;SDS011;19390;51.460;5.710;2023-02-15T01:07:47;58.63;;;30.73;;
33022;SDS011;19390;51.460;5.710;2023-02-15T01:10:13;64.13;;;31.63;;
33022;SDS011;19390;51.460;5.710;2023-02-15T01:12:38;64.00;;;31.60;;
33022;SDS011;19390;51.460;5.710;2023-02-15T01:15:04;57.80;;;31.52;;
33022;SDS011;19390;51.460;5.710;2023-02-15T01:17:30;65.75;;;33.08;;
33022;SDS011;19390;51.460;5.710;2023-02-15T01:19:56;63.88;;;32.92;;
33022;SDS011;19390;51.460;5.710;2023-02-15T01:22:22;56.80;;;30.40;;
33022;SDS011;19390;51.460;5.710;2023-02-15T01:24:51;63.53;;;33.05;;
33022;SDS011;19390;51.460;5.710;2023-02-15T01:27:17;63.53;;;32.75;;
33022;SDS011;19390;51.460;5.710;2023-02-15T01:29:42;66.88;;;32.25;;
33022;SDS011;19390;51.460;5.710;2023-02-15T01:32:08;58.83;;;30.50;;
33022;SDS011;19390;51.460;5.710;2023-02-15T01:34:33;64.57;;;32.95;;
33022;SDS011;19390;51.460;5.710;2023-02-15T01:36:59;61.92;;;31.42;;
33022;SDS011;19390;51.460;5.710;2023-02-15T01:39:25;54.00;;;29.58;;
33022;SDS011;19390;51.460;5.710;2023-02-15T01:41:50;59.97;;;31.70;;
33022;SDS011;19390;51.460;5.710;2023-02-15T01:47:10;55.72;;;28.52;;
33022;SDS011;19390;51.460;5.710;2023-02-15T01:49:39;58.05;;;29.90;;
33022;SDS011;19390;51.460;5.710;2023-02-15T01:52:06;50.25;;;29.25;;
33022;SDS011;19390;51.460;5.710;2023-02-15T01:54:35;55.10;;;30.30;;
33022;SDS011;19390;51.460;5.710;2023-02-15T01:57:04;57.17;;;29.00;;
33022;SDS011;19390;51.460;5.710;2023-02-15T01:59:34;58.25;;;30.25;;
33022;SDS011;19390;51.460;5.710;2023-02-15T02:02:01;53.00;;;28.98;;
33022;SDS011;19390;51.460;5.710;2023-02-15T02:04:35;57.75;;;30.42;;
33022;SDS011;19390;51.460;5.710;2023-02-15T02:07:06;64.28;;;31.17;;
33022;SDS011;19390;51.460;5.710;2023-02-15T02:09:33;61.47;;;31.00;;
33022;SDS011;19390;51.460;5.710;2023-02-15T02:11:59;59.45;;;30.88;;
33022;SDS011;19390;51.460;5.710;2023-02-15T02:14:25;62.20;;;30.70;;
33022;SDS011;19390;51.460;5.710;2023-02-15T02:17:14;54.00;;;29.00;;
33022;SDS011;19390;51.460;5.710;2023-02-15T02:34:51;59.67;;;29.25;;
33022;SDS011;19390;51.460;5.710;2023-02-15T02:40:36;55.90;;;28.52;;
33022;SDS011;19390;51.460;5.710;2023-02-15T02:43:11;55.30;;;29.88;;
33022;SDS011;19390;51.460;5.710;2023-02-15T02:45:58;63.97;;;28.88;;
33022;SDS011;19390;51.460;5.710;2023-02-15T02:48:33;57.92;;;27.63;;
33022;SDS011;19390;51.460;5.710;2023-02-15T02:50:59;52.15;;;26.35;;
33022;SDS011;19390;51.460;5.710;2023-02-15T02:53:25;56.28;;;29.38;;
33022;SDS011;19390;51.460;5.710;2023-02-15T02:55:58;55.20;;;28.90;;
33022;SDS011;19390;51.460;5.710;2023-02-15T02:58:34;50.10;;;27.10;;
33022;SDS011;19390;51.460;5.710;2023-02-15T03:01:12;46.60;;;27.05;;
33022;SDS011;19390;51.460;5.710;2023-02-15T03:03:52;50.88;;;26.00;;
33022;SDS011;19390;51.460;5.710;2023-02-15T03:07:09;49.67;;;28.35;;
33022;SDS011;19390;51.460;5.710;2023-02-15T03:09:51;53.47;;;28.42;;
33022;SDS011;19390;51.460;5.710;2023-02-15T03:12:21;61.08;;;28.80;;
33022;SDS011;19390;51.460;5.710;2023-02-15T03:14:56;59.55;;;27.77;;
33022;SDS011;19390;51.460;5.710;2023-02-15T03:17:34;63.22;;;28.13;;
33022;SDS011;19390;51.460;5.710;2023-02-15T03:20:12;59.67;;;30.60;;
33022;SDS011;19390;51.460;5.710;2023-02-15T03:22:44;59.85;;;28.75;;
33022;SDS011;19390;51.460;5.710;2023-02-15T03:25:19;55.87;;;29.37;;
33022;SDS011;19390;51.460;5.710;2023-02-15T03:30:20;51.88;;;27.25;;
33022;SDS011;19390;51.460;5.710;2023-02-15T03:32:48;59.83;;;27.85;;
33022;SDS011;19390;51.460;5.710;2023-02-15T03:35:16;58.58;;;28.40;;
33022;SDS011;19390;51.460;5.710;2023-02-15T03:37:45;56.60;;;27.73;;
33022;SDS011;19390;51.460;5.710;2023-02-15T03:40:18;59.30;;;29.17;;
33022;SDS011;19390;51.460;5.710;2023-02-15T03:45:55;55.88;;;27.85;;
33022;SDS011;19390;51.460;5.710;2023-02-15T03:48:29;53.97;;;25.85;;
33022;SDS011;19390;51.460;5.710;2023-02-15T03:51:00;54.50;;;27.65;;
33022;SDS011;19390;51.460;5.710;2023-02-15T03:53:48;62.15;;;31.48;;
33022;SDS011;19390;51.460;5.710;2023-02-15T03:56:15;59.83;;;30.60;;
33022;SDS011;19390;51.460;5.710;2023-02-15T03:58:40;57.63;;;29.58;;
33022;SDS011;19390;51.460;5.710;2023-02-15T04:01:35;51.90;;;27.17;;
33022;SDS011;19390;51.460;5.710;2023-02-15T04:04:23;57.15;;;29.88;;
33022;SDS011;19390;51.460;5.710;2023-02-15T04:06:53;57.97;;;28.90;;
33022;SDS011;19390;51.460;5.710;2023-02-15T04:09:18;58.25;;;28.23;;
33022;SDS011;19390;51.460;5.710;2023-02-15T04:12:03;58.53;;;28.63;;
33022;SDS011;19390;51.460;5.710;2023-02-15T04:14:28;59.30;;;29.50;;
33022;SDS011;19390;51.460;5.710;2023-02-15T04:17:13;62.15;;;29.77;;
33022;SDS011;19390;51.460;5.710;2023-02-15T04:19:38;67.32;;;31.05;;
33022;SDS011;19390;51.460;5.710;2023-02-15T04:22:22;54.10;;;28.92;;
33022;SDS011;19390;51.460;5.710;2023-02-15T04:25:07;54.38;;;28.13;;
33022;SDS011;19390;51.460;5.710;2023-02-15T04:27:36;57.22;;;29.15;;
33022;SDS011;19390;51.460;5.710;2023-02-15T04:30:02;57.20;;;29.02;;
33022;SDS011;19390;51.460;5.710;2023-02-15T04:32:28;53.92;;;30.02;;
33022;SDS011;19390;51.460;5.710;2023-02-15T04:34:54;61.15;;;30.15;;
33022;SDS011;19390;51.460;5.710;2023-02-15T04:37:19;62.50;;;30.67;;
33022;SDS011;19390;51.460;5.710;2023-02-15T04:39:45;62.97;;;30.27;;
33022;SDS011;19390;51.460;5.710;2023-02-15T04:42:11;59.50;;;31.88;;
33022;SDS011;19390;51.460;5.710;2023-02-15T04:44:36;67.20;;;30.70;;
33022;SDS011;19390;51.460;5.710;2023-02-15T04:47:02;66.22;;;32.22;;
33022;SDS011;19390;51.460;5.710;2023-02-15T04:49:27;60.13;;;31.20;;
33022;SDS011;19390;51.460;5.710;2023-02-15T04:51:53;61.10;;;32.42;;
33022;SDS011;19390;51.460;5.710;2023-02-15T04:54:18;60.50;;;30.25;;
33022;SDS011;19390;51.460;5.710;2023-02-15T04:56:44;63.08;;;30.23;;
33022;SDS011;19390;51.460;5.710;2023-02-15T04:59:10;66.93;;;31.95;;
33022;SDS011;19390;51.460;5.710;2023-02-15T05:01:36;71.47;;;33.20;;
33022;SDS011;19390;51.460;5.710;2023-02-15T05:04:02;64.22;;;31.95;;
33022;SDS011;19390;51.460;5.710;2023-02-15T05:06:28;64.18;;;32.10;;
33022;SDS011;19390;51.460;5.710;2023-02-15T05:08:54;61.58;;;30.63;;
33022;SDS011;19390;51.460;5.710;2023-02-15T05:11:19;52.47;;;26.55;;
33022;SDS011;19390;51.460;5.710;2023-02-15T05:13:45;69.53;;;32.50;;
33022;SDS011;19390;51.460;5.710;2023-02-15T05:16:10;67.32;;;31.95;;
33022;SDS011;19390;51.460;5.710;2023-02-15T05:18:36;61.70;;;31.67;;
33022;SDS011;19390;51.460;5.710;2023-02-15T05:21:02;68.80;;;32.03;;
33022;SDS011;19390;51.460;5.710;2023-02-15T05:23:27;62.92;;;31.90;;
33022;SDS011;19390;51.460;5.710;2023-02-15T05:25:53;63.08;;;31.95;;
33022;SDS011;19390;51.460;5.710;2023-02-15T05:28:37;69.75;;;31.75;;
33022;SDS011;19390;51.460;5.710;2023-02-15T05:31:07;59.00;;;29.45;;
33022;SDS011;19390;51.460;5.710;2023-02-15T05:33:36;70.05;;;32.40;;
33022;SDS011;19390;51.460;5.710;2023-02-15T05:36:02;68.05;;;33.15;;
33022;SDS011;19390;51.460;5.710;2023-02-15T05:38:28;72.90;;;34.47;;
33022;SDS011;19390;51.460;5.710;2023-02-15T05:40:54;71.10;;;31.77;;
33022;SDS011;19390;51.460;5.710;2023-02-15T05:43:20;65.70;;;33.15;;
33022;SDS011;19390;51.460;5.710;2023-02-15T05:45:48;72.53;;;33.67;;
33022;SDS011;19390;51.460;5.710;2023-02-15T05:48:15;68.65;;;34.33;;
33022;SDS011;19390;51.460;5.710;2023-02-15T05:50:42;67.82;;;34.08;;
33022;SDS011;19390;51.460;5.710;2023-02-15T05:53:08;62.53;;;30.58;;
33022;SDS011;19390;51.460;5.710;2023-02-15T05:55:33;65.88;;;33.45;;
33022;SDS011;19390;51.460;5.710;2023-02-15T05:58:01;64.55;;;31.75;;
33022;SDS011;19390;51.460;5.710;2023-02-15T06:00:27;74.30;;;32.72;;
33022;SDS011;19390;51.460;5.710;2023-02-15T06:02:53;69.38;;;32.05;;
33022;SDS011;19390;51.460;5.710;2023-02-15T06:05:18;70.65;;;36.35;;
33022;SDS011;19390;51.460;5.710;2023-02-15T06:07:44;84.82;;;37.35;;
33022;SDS011;19390;51.460;5.710;2023-02-15T06:10:10;62.85;;;30.20;;
33022;SDS011;19390;51.460;5.710;2023-02-15T06:12:36;79.70;;;35.80;;
33022;SDS011;19390;51.460;5.710;2023-02-15T06:15:02;71.53;;;35.10;;
33022;SDS011;19390;51.460;5.710;2023-02-15T06:17:28;67.95;;;33.55;;
33022;SDS011;19390;51.460;5.710;2023-02-15T06:19:53;83.40;;;38.22;;
33022;SDS011;19390;51.460;5.710;2023-02-15T06:22:19;77.25;;;35.67;;
33022;SDS011;19390;51.460;5.710;2023-02-15T06:24:45;73.38;;;34.35;;
33022;SDS011;19390;51.460;5.710;2023-02-15T06:27:11;66.32;;;32.47;;
33022;SDS011;19390;51.460;5.710;2023-02-15T06:29:37;100.93;;;39.83;;
33022;SDS011;19390;51.460;5.710;2023-02-15T06:32:03;79.03;;;36.72;;
33022;SDS011;19390;51.460;5.710;2023-02-15T06:34:29;87.72;;;40.60;;
33022;SDS011;19390;51.460;5.710;2023-02-15T06:36:55;78.43;;;39.33;;
33022;SDS011;19390;51.460;5.710;2023-02-15T06:39:21;69.93;;;35.58;;
33022;SDS011;19390;51.460;5.710;2023-02-15T06:41:46;70.05;;;35.30;;
33022;SDS011;19390;51.460;5.710;2023-02-15T06:44:12;85.10;;;36.90;;
33022;SDS011;19390;51.460;5.710;2023-02-15T06:46:37;80.75;;;36.42;;
33022;SDS011;19390;51.460;5.710;2023-02-15T06:49:03;71.75;;;33.28;;
33022;SDS011;19390;51.460;5.710;2023-02-15T06:51:29;75.78;;;36.60;;
33022;SDS011;19390;51.460;5.710;2023-02-15T06:53:54;77.82;;;37.95;;
33022;SDS011;19390;51.460;5.710;2023-02-15T06:56:20;75.80;;;36.80;;
33022;SDS011;19390;51.460;5.710;2023-02-15T06:58:46;62.90;;;33.03;;
33022;SDS011;19390;51.460;5.710;2023-02-15T07:01:14;76.90;;;36.30;;
33022;SDS011;19390;51.460;5.710;2023-02-15T07:03:39;72.80;;;32.80;;
33022;SDS011;19390;51.460;5.710;2023-02-15T07:06:05;72.40;;;32.50;;
33022;SDS011;19390;51.460;5.710;2023-02-15T07:08:33;81.97;;;36.67;;
33022;SDS011;19390;51.460;5.710;2023-02-15T07:10:59;67.88;;;33.33;;
33022;SDS011;19390;51.460;5.710;2023-02-15T07:13:45;73.82;;;34.72;;
33022;SDS011;19390;51.460;5.710;2023-02-15T07:16:11;74.55;;;33.63;;
33022;SDS011;19390;51.460;5.710;2023-02-15T07:18:37;69.70;;;33.20;;
33022;SDS011;19390;51.460;5.710;2023-02-15T07:21:04;84.47;;;37.33;;
33022;SDS011;19390;51.460;5.710;2023-02-15T07:23:32;79.07;;;36.20;;
33022;SDS011;19390;51.460;5.710;2023-02-15T07:25:59;79.75;;;38.17;;
33022;SDS011;19390;51.460;5.710;2023-02-15T07:28:26;77.07;;;37.92;;
33022;SDS011;19390;51.460;5.710;2023-02-15T07:30:52;80.45;;;37.22;;
33022;SDS011;19390;51.460;5.710;2023-02-15T07:33:18;69.25;;;34.83;;
33022;SDS011;19390;51.460;5.710;2023-02-15T07:35:50;81.13;;;36.95;;
33022;SDS011;19390;51.460;5.710;2023-02-15T07:38:16;87.13;;;40.25;;
33022;SDS011;19390;51.460;5.710;2023-02-15T07:40:42;75.15;;;35.85;;
33022;SDS011;19390;51.460;5.710;2023-02-15T07:43:08;82.30;;;38.95;;
33022;SDS011;19390;51.460;5.710;2023-02-15T07:45:34;69.80;;;34.78;;
33022;SDS011;19390;51.460;5.710;2023-02-15T07:48:00;72.75;;;36.20;;
33022;SDS011;19390;51.460;5.710;2023-02-15T07:50:26;73.25;;;34.60;;
33022;SDS011;19390;51.460;5.710;2023-02-15T07:52:52;64.47;;;35.08;;
33022;SDS011;19390;51.460;5.710;2023-02-15T07:55:18;53.08;;;29.27;;
33022;SDS011;19390;51.460;5.710;2023-02-15T07:57:44;52.75;;;28.80;;
33022;SDS011;19390;51.460;5.710;2023-02-15T08:00:14;45.70;;;26.55;;
33022;SDS011;19390;51.460;5.710;2023-02-15T08:02:41;49.40;;;26.73;;
33022;SDS011;19390;51.460;5.710;2023-02-15T08:05:12;42.53;;;24.38;;
33022;SDS011;19390;51.460;5.710;2023-02-15T08:07:37;41.05;;;24.42;;
33022;SDS011;19390;51.460;5.710;2023-02-15T08:10:03;41.47;;;23.55;;
33022;SDS011;19390;51.460;5.710;2023-02-15T08:12:29;39.50;;;23.92;;
33022;SDS011;19390;51.460;5.710;2023-02-15T08:14:55;39.47;;;24.80;;
33022;SDS011;19390;51.460;5.710;2023-02-15T08:17:20;40.63;;;24.00;;
33022;SDS011;19390;51.460;5.710;2023-02-15T08:19:46;42.03;;;25.25;;
33022;SDS011;19390;51.460;5.710;2023-02-15T08:22:13;37.58;;;23.42;;
33022;SDS011;19390;51.460;5.710;2023-02-15T08:24:39;43.40;;;26.90;;
33022;SDS011;19390;51.460;5.710;2023-02-15T08:27:06;39.97;;;24.88;;
33022;SDS011;19390;51.460;5.710;2023-02-15T08:29:33;40.85;;;24.75;;
33022;SDS011;19390;51.460;5.710;2023-02-15T08:32:01;42.20;;;26.15;;
33022;SDS011;19390;51.460;5.710;2023-02-15T08:34:36;38.53;;;25.52;;
33022;SDS011;19390;51.460;5.710;2023-02-15T08:37:03;41.28;;;25.92;;
33022;SDS011;19390;51.460;5.710;2023-02-15T08:39:30;42.53;;;25.45;;
33022;SDS011;19390;51.460;5.710;2023-02-15T08:41:56;36.10;;;24.17;;
33022;SDS011;19390;51.460;5.710;2023-02-15T08:44:22;38.78;;;25.00;;
33022;SDS011;19390;51.460;5.710;2023-02-15T08:46:48;39.10;;;24.20;;
33022;SDS011;19390;51.460;5.710;2023-02-15T08:49:16;35.13;;;24.05;;
33022;SDS011;19390;51.460;5.710;2023-02-15T08:51:44;33.10;;;23.52;;
33022;SDS011;19390;51.460;5.710;2023-02-15T08:54:12;41.15;;;27.25;;
33022;SDS011;19390;51.460;5.710;2023-02-15T08:56:40;38.42;;;26.85;;
33022;SDS011;19390;51.460;5.710;2023-02-15T08:59:07;36.22;;;25.63;;
33022;SDS011;19390;51.460;5.710;2023-02-15T09:01:38;38.92;;;24.60;;
33022;SDS011;19390;51.460;5.710;2023-02-15T09:04:05;33.17;;;23.60;;
33022;SDS011;19390;51.460;5.710;2023-02-15T09:06:35;38.70;;;24.60;;
33022;SDS011;19390;51.460;5.710;2023-02-15T09:09:04;35.70;;;23.50;;
33022;SDS011;19390;51.460;5.710;2023-02-15T09:11:32;40.35;;;25.75;;
33022;SDS011;19390;51.460;5.710;2023-02-15T09:14:04;41.42;;;25.75;;
33022;SDS011;19390;51.460;5.710;2023-02-15T09:16:35;35.05;;;24.77;;
33022;SDS011;19390;51.460;5.710;2023-02-15T09:19:02;33.58;;;23.33;;
33022;SDS011;19390;51.460;5.710;2023-02-15T09:21:32;37.60;;;25.42;;
33022;SDS011;19390;51.460;5.710;2023-02-15T09:24:01;39.53;;;26.38;;
33022;SDS011;19390;51.460;5.710;2023-02-15T09:26:30;37.28;;;24.50;;
33022;SDS011;19390;51.460;5.710;2023-02-15T09:28:58;42.03;;;27.90;;
33022;SDS011;19390;51.460;5.710;2023-02-15T09:31:27;43.70;;;27.48;;
33022;SDS011;19390;51.460;5.710;2023-02-15T09:33:54;42.10;;;26.58;;
33022;SDS011;19390;51.460;5.710;2023-02-15T09:36:26;41.17;;;26.77;;
33022;SDS011;19390;51.460;5.710;2023-02-15T09:39:04;45.97;;;28.00;;
33022;SDS011;19390;51.460;5.710;2023-02-15T09:50:37;44.53;;;27.65;;
33022;SDS011;19390;51.460;5.710;2023-02-15T10:01:50;44.08;;;27.00;;
33022;SDS011;19390;51.460;5.710;2023-02-15T10:26:41;46.30;;;27.48;;
33022;SDS011;19390;51.460;5.710;2023-02-15T10:29:21;46.67;;;26.90;;
33022;SDS011;19390;51.460;5.710;2023-02-15T10:34:39;46.83;;;26.88;;
33022;SDS011;19390;51.460;5.710;2023-02-15T10:40:02;51.10;;;28.95;;
33022;SDS011;19390;51.460;5.710;2023-02-15T10:42:40;54.45;;;29.77;;
33022;SDS011;19390;51.460;5.710;2023-02-15T11:06:42;47.85;;;28.33;;
33022;SDS011;19390;51.460;5.710;2023-02-15T11:09:13;45.00;;;28.38;;
33022;SDS011;19390;51.460;5.710;2023-02-15T11:11:44;44.80;;;25.30;;
33022;SDS011;19390;51.460;5.710;2023-02-15T11:17:55;41.35;;;25.60;;
33022;SDS011;19390;51.460;5.710;2023-02-15T11:22:58;42.92;;;25.67;;
33022;SDS011;19390;51.460;5.710;2023-02-15T11:25:32;40.97;;;26.20;;
33022;SDS011;19390;51.460;5.710;2023-02-15T11:27:59;41.60;;;26.73;;
33022;SDS011;19390;51.460;5.710;2023-02-15T11:30:33;43.55;;;27.45;;
33022;SDS011;19390;51.460;5.710;2023-02-15T11:33:14;41.90;;;25.75;;
33022;SDS011;19390;51.460;5.710;2023-02-15T11:35:48;41.33;;;25.55;;
33022;SDS011;19390;51.460;5.710;2023-02-15T11:38:24;40.08;;;25.17;;
33022;SDS011;19390;51.460;5.710;2023-02-15T11:41:01;42.65;;;26.02;;
33022;SDS011;19390;51.460;5.710;2023-02-15T11:46:08;42.17;;;24.80;;
33022;SDS011;19390;51.460;5.710;2023-02-15T11:48:37;40.08;;;25.85;;
33022;SDS011;19390;51.460;5.710;2023-02-15T11:51:03;41.95;;;24.60;;
33022;SDS011;19390;51.460;5.710;2023-02-15T11:53:31;35.15;;;23.67;;
33022;SDS011;19390;51.460;5.710;2023-02-15T11:55:58;41.55;;;25.20;;
33022;SDS011;19390;51.460;5.710;2023-02-15T12:04:08;35.08;;;23.13;;
33022;SDS011;19390;51.460;5.710;2023-02-15T12:09:30;37.03;;;24.38;;
33022;SDS011;19390;51.460;5.710;2023-02-15T12:14:50;34.00;;;23.33;;
33022;SDS011;19390;51.460;5.710;2023-02-15T12:17:32;37.88;;;23.50;;
33022;SDS011;19390;51.460;5.710;2023-02-15T12:22:52;33.67;;;24.20;;
33022;SDS011;19390;51.460;5.710;2023-02-15T12:28:03;34.88;;;22.60;;
33022;SDS011;19390;51.460;5.710;2023-02-15T12:30:41;35.20;;;24.02;;
33022;SDS011;19390;51.460;5.710;2023-02-15T12:35:40;34.97;;;22.80;;
33022;SDS011;19390;51.460;5.710;2023-02-15T12:40:35;36.38;;;21.90;;
33022;SDS011;19390;51.460;5.710;2023-02-15T12:43:01;35.67;;;23.15;;
33022;SDS011;19390;51.460;5.710;2023-02-15T12:45:34;37.00;;;21.73;;
33022;SDS011;19390;51.460;5.710;2023-02-15T12:50:39;36.35;;;22.90;;
33022;SDS011;19390;51.460;5.710;2023-02-15T12:53:16;36.08;;;22.98;;
33022;SDS011;19390;51.460;5.710;2023-02-15T12:55:54;31.35;;;21.38;;
33022;SDS011;19390;51.460;5.710;2023-02-15T12:58:23;36.63;;;21.88;;
33022;SDS011;19390;51.460;5.710;2023-02-15T13:03:38;33.40;;;20.65;;
33022;SDS011;19390;51.460;5.710;2023-02-15T13:06:19;36.95;;;22.77;;
33022;SDS011;19390;51.460;5.710;2023-02-15T13:08:47;38.83;;;23.65;;
33022;SDS011;19390;51.460;5.710;2023-02-15T13:11:31;32.92;;;22.67;;
33022;SDS011;19390;51.460;5.710;2023-02-15T13:14:18;33.90;;;20.65;;
33022;SDS011;19390;51.460;5.710;2023-02-15T13:16:47;31.50;;;20.65;;
33022;SDS011;19390;51.460;5.710;2023-02-15T13:19:33;31.05;;;20.13;;
33022;SDS011;19390;51.460;5.710;2023-02-15T13:22:02;37.30;;;22.38;;
33022;SDS011;19390;51.460;5.710;2023-02-15T13:24:36;38.78;;;23.02;;
33022;SDS011;19390;51.460;5.710;2023-02-15T13:27:07;35.75;;;21.00;;
33022;SDS011;19390;51.460;5.710;2023-02-15T13:29:37;36.78;;;22.17;;
33022;SDS011;19390;51.460;5.710;2023-02-15T13:32:25;36.10;;;21.55;;
33022;SDS011;19390;51.460;5.710;2023-02-15T13:35:01;35.78;;;21.35;;
33022;SDS011;19390;51.460;5.710;2023-02-15T13:40:32;39.08;;;23.65;;
33022;SDS011;19390;51.460;5.710;2023-02-15T13:45:54;33.85;;;21.83;;
33022;SDS011;19390;51.460;5.710;2023-02-15T13:59:00;38.63;;;21.58;;
33022;SDS011;19390;51.460;5.710;2023-02-15T14:01:44;35.25;;;20.65;;
33022;SDS011;19390;51.460;5.710;2023-02-15T14:12:37;34.72;;;19.90;;
33022;SDS011;19390;51.460;5.710;2023-02-15T14:15:47;35.08;;;19.25;;
33022;SDS011;19390;51.460;5.710;2023-02-15T14:18:30;36.38;;;19.38;;
33022;SDS011;19390;51.460;5.710;2023-02-15T14:23:43;37.10;;;20.38;;
33022;SDS011;19390;51.460;5.710;2023-02-15T14:26:21;32.88;;;18.40;;
33022;SDS011;19390;51.460;5.710;2023-02-15T14:31:34;39.35;;;20.17;;
33022;SDS011;19390;51.460;5.710;2023-02-15T14:34:11;42.75;;;22.75;;
33022;SDS011;19390;51.460;5.710;2023-02-15T14:36:49;38.92;;;20.58;;
33022;SDS011;19390;51.460;5.710;2023-02-15T14:39:18;37.75;;;20.85;;
33022;SDS011;19390;51.460;5.710;2023-02-15T14:47:45;43.28;;;20.42;;
33022;SDS011;19390;51.460;5.710;2023-02-15T14:53:14;41.25;;;21.42;;
33022;SDS011;19390;51.460;5.710;2023-02-15T15:01:25;43.03;;;21.60;;
33022;SDS011;19390;51.460;5.710;2023-02-15T15:06:29;41.80;;;21.50;;
33022;SDS011;19390;51.460;5.710;2023-02-15T15:11:52;38.40;;;20.63;;
33022;SDS011;19390;51.460;5.710;2023-02-15T15:14:37;42.15;;;21.77;;
33022;SDS011;19390;51.460;5.710;2023-02-15T15:17:05;38.75;;;20.70;;
33022;SDS011;19390;51.460;5.710;2023-02-15T15:22:19;40.45;;;20.45;;
33022;SDS011;19390;51.460;5.710;2023-02-15T15:24:52;38.75;;;20.98;;
33022;SDS011;19390;51.460;5.710;2023-02-15T15:32:38;40.75;;;22.48;;
33022;SDS011;19390;51.460;5.710;2023-02-15T15:44:03;40.80;;;23.50;;
33022;SDS011;19390;51.460;5.710;2023-02-15T15:49:20;41.88;;;23.95;;
33022;SDS011;19390;51.460;5.710;2023-02-15T15:51:48;46.17;;;24.63;;
33022;SDS011;19390;51.460;5.710;2023-02-15T15:54:15;41.40;;;24.52;;
33022;SDS011;19390;51.460;5.710;2023-02-15T15:57:04;43.47;;;24.58;;
33022;SDS011;19390;51.460;5.710;2023-02-15T15:59:32;42.28;;;22.52;;
33022;SDS011;19390;51.460;5.710;2023-02-15T16:02:06;41.60;;;22.73;;
33022;SDS011;19390;51.460;5.710;2023-02-15T16:04:35;42.50;;;23.42;;
33022;SDS011;19390;51.460;5.710;2023-02-15T16:12:22;39.92;;;22.80;;
33022;SDS011;19390;51.460;5.710;2023-02-15T16:14:48;41.90;;;24.35;;
33022;SDS011;19390;51.460;5.710;2023-02-15T16:17:23;43.65;;;25.67;;
33022;SDS011;19390;51.460;5.710;2023-02-15T16:19:59;44.13;;;23.88;;
33022;SDS011;19390;51.460;5.710;2023-02-15T16:22:29;45.50;;;24.77;;
33022;SDS011;19390;51.460;5.710;2023-02-15T16:25:04;37.63;;;24.00;;
33022;SDS011;19390;51.460;5.710;2023-02-15T16:27:52;42.60;;;24.20;;
33022;SDS011;19390;51.460;5.710;2023-02-15T16:32:47;45.08;;;23.35;;
33022;SDS011;19390;51.460;5.710;2023-02-15T16:35:14;43.85;;;24.00;;
33022;SDS011;19390;51.460;5.710;2023-02-15T16:37:41;42.85;;;24.10;;
33022;SDS011;19390;51.460;5.710;2023-02-15T16:40:25;42.60;;;23.85;;
33022;SDS011;19390;51.460;5.710;2023-02-15T16:43:31;46.85;;;23.80;;
33022;SDS011;19390;51.460;5.710;2023-02-15T16:46:02;42.58;;;22.98;;
33022;SDS011;19390;51.460;5.710;2023-02-15T16:48:30;46.20;;;24.00;;
33022;SDS011;19390;51.460;5.710;2023-02-15T16:50:57;44.92;;;24.00;;
33022;SDS011;19390;51.460;5.710;2023-02-15T16:53:24;40.60;;;23.17;;
33022;SDS011;19390;51.460;5.710;2023-02-15T16:55:55;42.67;;;23.95;;
33022;SDS011;19390;51.460;5.710;2023-02-15T16:58:26;43.15;;;24.08;;
33022;SDS011;19390;51.460;5.710;2023-02-15T17:01:12;41.20;;;23.58;;
33022;SDS011;19390;51.460;5.710;2023-02-15T17:03:40;41.85;;;23.95;;
33022;SDS011;19390;51.460;5.710;2023-02-15T17:06:40;42.05;;;24.55;;
33022;SDS011;19390;51.460;5.710;2023-02-15T17:09:05;44.20;;;25.27;;
33022;SDS011;19390;51.460;5.710;2023-02-15T17:11:41;46.88;;;24.73;;
33022;SDS011;19390;51.460;5.710;2023-02-15T17:19:02;42.78;;;24.40;;
33022;SDS011;19390;51.460;5.710;2023-02-15T17:21:37;44.33;;;25.13;;
33022;SDS011;19390;51.460;5.710;2023-02-15T17:24:13;45.58;;;25.70;;
33022;SDS011;19390;51.460;5.710;2023-02-15T17:26:42;50.35;;;26.85;;
33022;SDS011;19390;51.460;5.710;2023-02-15T17:31:49;44.67;;;26.08;;
33022;SDS011;19390;51.460;5.710;2023-02-15T17:37:12;46.25;;;26.42;;
33022;SDS011;19390;51.460;5.710;2023-02-15T17:39:47;46.15;;;26.48;;
33022;SDS011;19390;51.460;5.710;2023-02-15T17:42:13;56.00;;;28.88;;
33022;SDS011;19390;51.460;5.710;2023-02-15T17:44:38;49.17;;;27.70;;
33022;SDS011;19390;51.460;5.710;2023-02-15T17:47:04;48.30;;;26.23;;
33022;SDS011;19390;51.460;5.710;2023-02-15T17:49:29;47.78;;;26.60;;
33022;SDS011;19390;51.460;5.710;2023-02-15T17:51:59;48.25;;;28.20;;
33022;SDS011;19390;51.460;5.710;2023-02-15T17:54:27;50.50;;;27.85;;
33022;SDS011;19390;51.460;5.710;2023-02-15T17:57:12;47.28;;;27.75;;
33022;SDS011;19390;51.460;5.710;2023-02-15T17:59:39;51.28;;;30.02;;
33022;SDS011;19390;51.460;5.710;2023-02-15T18:02:23;48.72;;;28.38;;
33022;SDS011;19390;51.460;5.710;2023-02-15T18:05:11;45.88;;;27.70;;
33022;SDS011;19390;51.460;5.710;2023-02-15T18:07:57;58.22;;;30.38;;
33022;SDS011;19390;51.460;5.710;2023-02-15T18:10:41;52.10;;;29.25;;
33022;SDS011;19390;51.460;5.710;2023-02-15T18:13:25;53.58;;;28.52;;
33022;SDS011;19390;51.460;5.710;2023-02-15T18:15:51;55.13;;;29.75;;
33022;SDS011;19390;51.460;5.710;2023-02-15T18:18:17;51.92;;;29.23;;
33022;SDS011;19390;51.460;5.710;2023-02-15T18:20:42;53.95;;;29.65;;